sensor_id;sensor_type;location;lat;lon;timestamp;P1;durP1;ratioP1;P2;durP2;ratioP2
75589;SDS011;64169;47.240;11.312;2023-07-02T00:02:19;5.45;;;2.22;;
75589;SDS011;64169;47.240;11.312;2023-07-02T00:04:45;5.45;;;2.20;;
75589;SDS011;64169;47.240;11.312;2023-07-02T00:07:11;5.25;;;2.17;;
75589;SDS011;64169;47.240;11.312;2023-07-02T00:09:37;5.80;;;2.17;;
75589;SDS011;64169;47.240;11.312;2023-07-02T00:12:02;5.30;;;2.30;;
75589;SDS011;64169;47.240;11.312;2023-07-02T00:14:28;5.32;;;1.90;;
75589;SDS011;64169;47.240;11.312;2023-07-02T00:16:53;5.88;;;2.25;;
75589;SDS011;64169;47.240;11.312;2023-07-02T00:19:18;5.38;;;2.17;;
75589;SDS011;64169;47.240;11.312;2023-07-02T00:21:44;6.20;;;2.40;;
75589;SDS011;64169;47.240;11.312;2023-07-02T00:24:09;6.30;;;2.13;;
75589;SDS011;64169;47.240;11.312;2023-07-02T00:26:35;5.00;;;1.98;;
75589;SDS011;64169;47.240;11.312;2023-07-02T00:29:02;5.75;;;2.25;;
75589;SDS011;64169;47.240;11.312;2023-07-02T00:31:29;6.80;;;2.35;;
75589;SDS011;64169;47.240;11.312;2023-07-02T00:33:54;5.90;;;2.28;;
75589;SDS011;64169;47.240;11.312;2023-07-02T00:36:19;5.53;;;2.55;;
75589;SDS011;64169;47.240;11.312;2023-07-02T00:38:45;6.47;;;2.58;;
75589;SDS011;64169;47.240;11.312;2023-07-02T00:41:12;5.50;;;2.08;;
75589;SDS011;64169;47.240;11.312;2023-07-02T00:43:37;5.43;;;2.42;;
75589;SDS011;64169;47.240;11.312;2023-07-02T00:46:13;6.53;;;2.10;;
75589;SDS011;64169;47.240;11.312;2023-07-02T00:48:46;5.50;;;2.10;;
75589;SDS011;64169;47.240;11.312;2023-07-02T00:51:15;5.53;;;2.40;;
75589;SDS011;64169;47.240;11.312;2023-07-02T00:53:44;6.78;;;2.58;;
75589;SDS011;64169;47.240;11.312;2023-07-02T00:56:11;7.32;;;2.50;;
75589;SDS011;64169;47.240;11.312;2023-07-02T00:58:38;5.82;;;2.20;;
75589;SDS011;64169;47.240;11.312;2023-07-02T01:01:05;6.57;;;2.58;;
75589;SDS011;64169;47.240;11.312;2023-07-02T01:03:30;5.65;;;2.42;;
75589;SDS011;64169;47.240;11.312;2023-07-02T01:05:58;5.85;;;2.50;;
75589;SDS011;64169;47.240;11.312;2023-07-02T01:08:24;6.57;;;2.70;;
75589;SDS011;64169;47.240;11.312;2023-07-02T01:10:49;6.40;;;2.22;;
75589;SDS011;64169;47.240;11.312;2023-07-02T01:13:15;6.75;;;2.53;;
75589;SDS011;64169;47.240;11.312;2023-07-02T01:15:42;5.35;;;2.30;;
75589;SDS011;64169;47.240;11.312;2023-07-02T01:18:09;6.82;;;2.40;;
75589;SDS011;64169;47.240;11.312;2023-07-02T01:20:35;7.43;;;2.92;;
75589;SDS011;64169;47.240;11.312;2023-07-02T01:23:01;6.78;;;2.72;;
75589;SDS011;64169;47.240;11.312;2023-07-02T01:25:27;6.10;;;2.47;;
75589;SDS011;64169;47.240;11.312;2023-07-02T01:27:52;6.10;;;2.75;;
75589;SDS011;64169;47.240;11.312;2023-07-02T01:30:18;7.15;;;3.22;;
75589;SDS011;64169;47.240;11.312;2023-07-02T01:32:44;7.20;;;3.15;;
75589;SDS011;64169;47.240;11.312;2023-07-02T01:35:09;7.05;;;3.13;;
75589;SDS011;64169;47.240;11.312;2023-07-02T01:37:34;6.45;;;2.90;;
75589;SDS011;64169;47.240;11.312;2023-07-02T01:40:02;7.43;;;3.22;;
75589;SDS011;64169;47.240;11.312;2023-07-02T01:42:31;6.47;;;3.10;;
75589;SDS011;64169;47.240;11.312;2023-07-02T01:44:56;7.45;;;3.63;;
75589;SDS011;64169;47.240;11.312;2023-07-02T01:47:21;7.68;;;3.05;;
75589;SDS011;64169;47.240;11.312;2023-07-02T01:49:47;7.07;;;3.03;;
75589;SDS011;64169;47.240;11.312;2023-07-02T01:52:12;6.53;;;2.92;;
75589;SDS011;64169;47.240;11.312;2023-07-02T01:54:38;6.80;;;3.00;;
75589;SDS011;64169;47.240;11.312;2023-07-02T01:57:03;6.10;;;2.80;;
75589;SDS011;64169;47.240;11.312;2023-07-02T01:59:29;7.32;;;3.30;;
75589;SDS011;64169;47.240;11.312;2023-07-02T02:01:55;6.72;;;2.88;;
75589;SDS011;64169;47.240;11.312;2023-07-02T02:04:20;6.80;;;3.05;;
75589;SDS011;64169;47.240;11.312;2023-07-02T02:06:46;6.72;;;3.13;;
75589;SDS011;64169;47.240;11.312;2023-07-02T02:09:11;7.40;;;3.30;;
75589;SDS011;64169;47.240;11.312;2023-07-02T02:11:38;9.27;;;3.40;;
75589;SDS011;64169;47.240;11.312;2023-07-02T02:14:09;7.80;;;3.20;;
75589;SDS011;64169;47.240;11.312;2023-07-02T02:16:34;7.68;;;3.47;;
75589;SDS011;64169;47.240;11.312;2023-07-02T02:19:00;7.30;;;3.40;;
75589;SDS011;64169;47.240;11.312;2023-07-02T02:21:26;6.63;;;2.95;;
75589;SDS011;64169;47.240;11.312;2023-07-02T02:23:51;6.53;;;3.15;;
75589;SDS011;64169;47.240;11.312;2023-07-02T02:26:17;9.15;;;3.70;;
75589;SDS011;64169;47.240;11.312;2023-07-02T02:28:43;9.88;;;3.47;;
75589;SDS011;64169;47.240;11.312;2023-07-02T02:31:08;7.13;;;3.47;;
75589;SDS011;64169;47.240;11.312;2023-07-02T02:33:34;8.40;;;3.45;;
75589;SDS011;64169;47.240;11.312;2023-07-02T02:36:00;7.70;;;3.40;;
75589;SDS011;64169;47.240;11.312;2023-07-02T02:38:27;8.77;;;3.30;;
75589;SDS011;64169;47.240;11.312;2023-07-02T02:40:52;6.97;;;3.08;;
75589;SDS011;64169;47.240;11.312;2023-07-02T02:43:17;7.88;;;3.63;;
75589;SDS011;64169;47.240;11.312;2023-07-02T02:45:43;7.20;;;3.50;;
75589;SDS011;64169;47.240;11.312;2023-07-02T02:48:08;7.75;;;3.55;;
75589;SDS011;64169;47.240;11.312;2023-07-02T02:50:34;8.27;;;3.33;;
75589;SDS011;64169;47.240;11.312;2023-07-02T02:52:59;7.30;;;3.58;;
75589;SDS011;64169;47.240;11.312;2023-07-02T02:55:24;8.13;;;3.60;;
75589;SDS011;64169;47.240;11.312;2023-07-02T02:57:51;9.10;;;3.60;;
75589;SDS011;64169;47.240;11.312;2023-07-02T03:00:16;9.50;;;3.33;;
75589;SDS011;64169;47.240;11.312;2023-07-02T03:02:42;7.60;;;3.90;;
75589;SDS011;64169;47.240;11.312;2023-07-02T03:05:08;7.95;;;3.72;;
75589;SDS011;64169;47.240;11.312;2023-07-02T03:07:33;8.25;;;3.60;;
75589;SDS011;64169;47.240;11.312;2023-07-02T03:10:00;8.52;;;3.78;;
75589;SDS011;64169;47.240;11.312;2023-07-02T03:12:25;7.93;;;3.58;;
75589;SDS011;64169;47.240;11.312;2023-07-02T03:14:51;8.70;;;4.03;;
75589;SDS011;64169;47.240;11.312;2023-07-02T03:17:19;9.10;;;4.15;;
75589;SDS011;64169;47.240;11.312;2023-07-02T03:19:45;7.20;;;3.58;;
75589;SDS011;64169;47.240;11.312;2023-07-02T03:22:11;9.30;;;3.38;;
75589;SDS011;64169;47.240;11.312;2023-07-02T03:24:37;7.75;;;3.47;;
75589;SDS011;64169;47.240;11.312;2023-07-02T03:27:02;7.93;;;3.67;;
75589;SDS011;64169;47.240;11.312;2023-07-02T03:29:28;7.68;;;3.72;;
75589;SDS011;64169;47.240;11.312;2023-07-02T03:31:53;7.43;;;2.97;;
75589;SDS011;64169;47.240;11.312;2023-07-02T03:34:19;8.05;;;3.83;;
75589;SDS011;64169;47.240;11.312;2023-07-02T03:36:44;9.50;;;4.03;;
75589;SDS011;64169;47.240;11.312;2023-07-02T03:39:10;8.00;;;3.67;;
75589;SDS011;64169;47.240;11.312;2023-07-02T03:41:35;7.47;;;3.47;;
75589;SDS011;64169;47.240;11.312;2023-07-02T03:44:01;8.60;;;3.60;;
75589;SDS011;64169;47.240;11.312;2023-07-02T03:46:26;7.60;;;3.88;;
75589;SDS011;64169;47.240;11.312;2023-07-02T03:48:51;9.10;;;3.80;;
75589;SDS011;64169;47.240;11.312;2023-07-02T03:51:17;7.40;;;3.28;;
75589;SDS011;64169;47.240;11.312;2023-07-02T03:53:43;7.75;;;3.60;;
75589;SDS011;64169;47.240;11.312;2023-07-02T03:56:08;7.75;;;3.85;;
75589;SDS011;64169;47.240;11.312;2023-07-02T03:58:34;7.20;;;3.72;;
75589;SDS011;64169;47.240;11.312;2023-07-02T04:00:59;7.38;;;4.22;;
75589;SDS011;64169;47.240;11.312;2023-07-02T04:03:25;8.52;;;3.50;;
75589;SDS011;64169;47.240;11.312;2023-07-02T04:05:51;6.93;;;3.63;;
75589;SDS011;64169;47.240;11.312;2023-07-02T04:08:16;7.75;;;3.45;;
75589;SDS011;64169;47.240;11.312;2023-07-02T04:10:42;8.43;;;4.10;;
75589;SDS011;64169;47.240;11.312;2023-07-02T04:13:07;7.90;;;3.78;;
75589;SDS011;64169;47.240;11.312;2023-07-02T04:15:33;6.82;;;3.70;;
75589;SDS011;64169;47.240;11.312;2023-07-02T04:17:59;8.23;;;3.80;;
75589;SDS011;64169;47.240;11.312;2023-07-02T04:20:24;9.07;;;4.00;;
75589;SDS011;64169;47.240;11.312;2023-07-02T04:22:50;8.27;;;4.07;;
75589;SDS011;64169;47.240;11.312;2023-07-02T04:25:16;11.77;;;3.88;;
75589;SDS011;64169;47.240;11.312;2023-07-02T04:27:42;7.90;;;3.97;;
75589;SDS011;64169;47.240;11.312;2023-07-02T04:30:11;9.48;;;4.28;;
75589;SDS011;64169;47.240;11.312;2023-07-02T04:32:37;8.13;;;4.32;;
75589;SDS011;64169;47.240;11.312;2023-07-02T04:35:08;11.00;;;4.32;;
75589;SDS011;64169;47.240;11.312;2023-07-02T04:37:34;9.10;;;4.63;;
75589;SDS011;64169;47.240;11.312;2023-07-02T04:40:00;10.82;;;4.22;;
75589;SDS011;64169;47.240;11.312;2023-07-02T04:42:27;8.25;;;4.07;;
75589;SDS011;64169;47.240;11.312;2023-07-02T04:44:55;9.02;;;4.10;;
75589;SDS011;64169;47.240;11.312;2023-07-02T04:47:20;7.93;;;4.35;;
75589;SDS011;64169;47.240;11.312;2023-07-02T04:49:46;8.05;;;4.00;;
75589;SDS011;64169;47.240;11.312;2023-07-02T04:52:11;12.55;;;4.88;;
75589;SDS011;64169;47.240;11.312;2023-07-02T04:54:37;8.43;;;3.85;;
75589;SDS011;64169;47.240;11.312;2023-07-02T04:57:02;7.28;;;3.35;;
75589;SDS011;64169;47.240;11.312;2023-07-02T04:59:28;7.85;;;3.85;;
75589;SDS011;64169;47.240;11.312;2023-07-02T05:01:53;8.32;;;3.78;;
75589;SDS011;64169;47.240;11.312;2023-07-02T05:04:19;7.43;;;3.63;;
75589;SDS011;64169;47.240;11.312;2023-07-02T05:06:44;6.72;;;3.40;;
75589;SDS011;64169;47.240;11.312;2023-07-02T05:09:10;8.75;;;3.95;;
75589;SDS011;64169;47.240;11.312;2023-07-02T05:11:35;8.65;;;4.13;;
75589;SDS011;64169;47.240;11.312;2023-07-02T05:14:00;7.43;;;3.70;;
75589;SDS011;64169;47.240;11.312;2023-07-02T05:16:26;8.70;;;4.20;;
75589;SDS011;64169;47.240;11.312;2023-07-02T05:18:51;9.88;;;4.22;;
75589;SDS011;64169;47.240;11.312;2023-07-02T05:21:17;7.93;;;3.95;;
75589;SDS011;64169;47.240;11.312;2023-07-02T05:23:43;7.93;;;4.45;;
75589;SDS011;64169;47.240;11.312;2023-07-02T05:26:08;8.25;;;4.35;;
75589;SDS011;64169;47.240;11.312;2023-07-02T05:28:33;7.80;;;4.53;;
75589;SDS011;64169;47.240;11.312;2023-07-02T05:30:59;8.73;;;4.18;;
75589;SDS011;64169;47.240;11.312;2023-07-02T05:33:24;8.93;;;4.90;;
75589;SDS011;64169;47.240;11.312;2023-07-02T05:35:50;8.48;;;4.47;;
75589;SDS011;64169;47.240;11.312;2023-07-02T05:38:17;9.50;;;4.97;;
75589;SDS011;64169;47.240;11.312;2023-07-02T05:40:43;8.65;;;4.68;;
75589;SDS011;64169;47.240;11.312;2023-07-02T05:43:08;7.93;;;4.05;;
75589;SDS011;64169;47.240;11.312;2023-07-02T05:45:33;8.98;;;4.60;;
75589;SDS011;64169;47.240;11.312;2023-07-02T05:47:59;8.38;;;4.50;;
75589;SDS011;64169;47.240;11.312;2023-07-02T05:50:24;8.70;;;4.75;;
75589;SDS011;64169;47.240;11.312;2023-07-02T05:52:51;8.88;;;4.25;;
75589;SDS011;64169;47.240;11.312;2023-07-02T05:55:17;8.80;;;4.25;;
75589;SDS011;64169;47.240;11.312;2023-07-02T05:57:42;9.65;;;4.63;;
75589;SDS011;64169;47.240;11.312;2023-07-02T06:00:07;8.77;;;4.40;;
75589;SDS011;64169;47.240;11.312;2023-07-02T06:02:33;8.45;;;3.65;;
75589;SDS011;64169;47.240;11.312;2023-07-02T06:04:59;10.32;;;4.65;;
75589;SDS011;64169;47.240;11.312;2023-07-02T06:07:24;7.57;;;3.72;;
75589;SDS011;64169;47.240;11.312;2023-07-02T06:09:50;9.00;;;3.80;;
75589;SDS011;64169;47.240;11.312;2023-07-02T06:12:16;9.23;;;4.30;;
75589;SDS011;64169;47.240;11.312;2023-07-02T06:14:41;10.00;;;4.55;;
75589;SDS011;64169;47.240;11.312;2023-07-02T06:17:07;8.65;;;4.18;;
75589;SDS011;64169;47.240;11.312;2023-07-02T06:19:33;8.30;;;3.95;;
75589;SDS011;64169;47.240;11.312;2023-07-02T06:21:59;8.40;;;4.05;;
75589;SDS011;64169;47.240;11.312;2023-07-02T06:24:25;9.57;;;3.97;;
75589;SDS011;64169;47.240;11.312;2023-07-02T06:26:50;8.38;;;4.35;;
75589;SDS011;64169;47.240;11.312;2023-07-02T06:29:16;7.10;;;3.45;;
75589;SDS011;64169;47.240;11.312;2023-07-02T06:31:41;9.02;;;5.05;;
75589;SDS011;64169;47.240;11.312;2023-07-02T06:34:07;8.18;;;3.92;;
75589;SDS011;64169;47.240;11.312;2023-07-02T06:36:33;7.63;;;3.80;;
75589;SDS011;64169;47.240;11.312;2023-07-02T06:38:59;8.80;;;3.75;;
75589;SDS011;64169;47.240;11.312;2023-07-02T06:41:24;8.73;;;4.00;;
75589;SDS011;64169;47.240;11.312;2023-07-02T06:43:50;8.60;;;4.07;;
75589;SDS011;64169;47.240;11.312;2023-07-02T06:46:15;9.15;;;4.28;;
75589;SDS011;64169;47.240;11.312;2023-07-02T06:48:41;7.70;;;3.80;;
75589;SDS011;64169;47.240;11.312;2023-07-02T06:51:06;7.75;;;4.03;;
75589;SDS011;64169;47.240;11.312;2023-07-02T06:53:32;8.43;;;4.38;;
75589;SDS011;64169;47.240;11.312;2023-07-02T06:55:58;8.98;;;4.07;;
75589;SDS011;64169;47.240;11.312;2023-07-02T06:58:23;8.82;;;3.78;;
75589;SDS011;64169;47.240;11.312;2023-07-02T07:00:49;9.27;;;4.45;;
75589;SDS011;64169;47.240;11.312;2023-07-02T07:03:15;7.55;;;3.65;;
75589;SDS011;64169;47.240;11.312;2023-07-02T07:05:41;7.95;;;3.75;;
75589;SDS011;64169;47.240;11.312;2023-07-02T07:08:06;7.07;;;3.45;;
75589;SDS011;64169;47.240;11.312;2023-07-02T07:10:32;7.95;;;3.85;;
75589;SDS011;64169;47.240;11.312;2023-07-02T07:12:59;9.68;;;4.00;;
75589;SDS011;64169;47.240;11.312;2023-07-02T07:15:26;7.88;;;3.63;;
75589;SDS011;64169;47.240;11.312;2023-07-02T07:17:51;7.45;;;3.47;;
75589;SDS011;64169;47.240;11.312;2023-07-02T07:20:17;8.43;;;3.83;;
75589;SDS011;64169;47.240;11.312;2023-07-02T07:22:43;9.48;;;4.00;;
75589;SDS011;64169;47.240;11.312;2023-07-02T07:25:09;7.72;;;3.65;;
75589;SDS011;64169;47.240;11.312;2023-07-02T07:27:34;9.30;;;3.30;;
75589;SDS011;64169;47.240;11.312;2023-07-02T07:30:00;7.38;;;3.50;;
75589;SDS011;64169;47.240;11.312;2023-07-02T07:32:26;7.47;;;3.58;;
75589;SDS011;64169;47.240;11.312;2023-07-02T07:34:51;7.78;;;3.15;;
75589;SDS011;64169;47.240;11.312;2023-07-02T07:37:17;7.35;;;3.60;;
75589;SDS011;64169;47.240;11.312;2023-07-02T07:39:42;7.85;;;3.45;;
75589;SDS011;64169;47.240;11.312;2023-07-02T07:42:08;9.43;;;4.00;;
75589;SDS011;64169;47.240;11.312;2023-07-02T07:44:33;8.02;;;3.28;;
75589;SDS011;64169;47.240;11.312;2023-07-02T07:46:59;8.70;;;3.42;;
75589;SDS011;64169;47.240;11.312;2023-07-02T07:49:24;6.50;;;2.90;;
75589;SDS011;64169;47.240;11.312;2023-07-02T07:51:50;7.97;;;3.50;;
75589;SDS011;64169;47.240;11.312;2023-07-02T07:54:15;7.10;;;3.30;;
75589;SDS011;64169;47.240;11.312;2023-07-02T07:56:41;7.68;;;3.75;;
75589;SDS011;64169;47.240;11.312;2023-07-02T07:59:06;6.95;;;3.83;;
75589;SDS011;64169;47.240;11.312;2023-07-02T08:01:32;6.68;;;3.13;;
75589;SDS011;64169;47.240;11.312;2023-07-02T08:03:57;8.35;;;3.25;;
75589;SDS011;64169;47.240;11.312;2023-07-02T08:06:23;6.57;;;2.97;;
75589;SDS011;64169;47.240;11.312;2023-07-02T08:08:48;7.32;;;3.78;;
75589;SDS011;64169;47.240;11.312;2023-07-02T08:11:13;7.63;;;3.92;;
75589;SDS011;64169;47.240;11.312;2023-07-02T08:13:39;7.70;;;3.30;;
75589;SDS011;64169;47.240;11.312;2023-07-02T08:16:04;7.55;;;3.55;;
75589;SDS011;64169;47.240;11.312;2023-07-02T08:18:30;7.35;;;3.60;;
75589;SDS011;64169;47.240;11.312;2023-07-02T08:20:55;7.65;;;3.53;;
75589;SDS011;64169;47.240;11.312;2023-07-02T08:23:21;8.73;;;3.08;;
75589;SDS011;64169;47.240;11.312;2023-07-02T08:25:47;6.95;;;2.97;;
75589;SDS011;64169;47.240;11.312;2023-07-02T08:28:12;7.03;;;3.30;;
75589;SDS011;64169;47.240;11.312;2023-07-02T08:30:38;5.90;;;2.63;;
75589;SDS011;64169;47.240;11.312;2023-07-02T08:33:03;6.47;;;2.80;;
75589;SDS011;64169;47.240;11.312;2023-07-02T08:35:28;8.00;;;3.53;;
75589;SDS011;64169;47.240;11.312;2023-07-02T08:37:54;6.80;;;3.08;;
75589;SDS011;64169;47.240;11.312;2023-07-02T08:40:19;7.05;;;3.15;;
75589;SDS011;64169;47.240;11.312;2023-07-02T08:42:45;6.25;;;3.13;;
75589;SDS011;64169;47.240;11.312;2023-07-02T08:45:13;6.90;;;3.17;;
75589;SDS011;64169;47.240;11.312;2023-07-02T08:47:39;7.93;;;3.03;;
75589;SDS011;64169;47.240;11.312;2023-07-02T08:50:05;6.97;;;2.90;;
75589;SDS011;64169;47.240;11.312;2023-07-02T08:52:31;6.85;;;2.72;;
75589;SDS011;64169;47.240;11.312;2023-07-02T08:54:56;6.30;;;3.03;;
75589;SDS011;64169;47.240;11.312;2023-07-02T08:57:22;7.03;;;3.03;;
75589;SDS011;64169;47.240;11.312;2023-07-02T08:59:47;5.82;;;2.65;;
75589;SDS011;64169;47.240;11.312;2023-07-02T09:02:14;6.10;;;2.90;;
75589;SDS011;64169;47.240;11.312;2023-07-02T09:04:39;8.00;;;3.42;;
75589;SDS011;64169;47.240;11.312;2023-07-02T09:07:05;7.60;;;3.53;;
75589;SDS011;64169;47.240;11.312;2023-07-02T09:09:32;8.75;;;3.10;;
75589;SDS011;64169;47.240;11.312;2023-07-02T09:11:58;9.85;;;2.80;;
75589;SDS011;64169;47.240;11.312;2023-07-02T09:14:27;8.00;;;2.80;;
75589;SDS011;64169;47.240;11.312;2023-07-02T09:17:06;6.55;;;2.70;;
75589;SDS011;64169;47.240;11.312;2023-07-02T09:19:36;7.55;;;3.17;;
75589;SDS011;64169;47.240;11.312;2023-07-02T09:22:02;16.65;;;4.00;;
75589;SDS011;64169;47.240;11.312;2023-07-02T09:24:29;17.45;;;3.50;;
75589;SDS011;64169;47.240;11.312;2023-07-02T09:26:56;24.17;;;4.55;;
75589;SDS011;64169;47.240;11.312;2023-07-02T09:29:26;6.32;;;2.70;;
75589;SDS011;64169;47.240;11.312;2023-07-02T09:31:56;6.38;;;2.95;;
75589;SDS011;64169;47.240;11.312;2023-07-02T09:34:26;5.85;;;2.83;;
75589;SDS011;64169;47.240;11.312;2023-07-02T09:36:55;7.00;;;2.75;;
75589;SDS011;64169;47.240;11.312;2023-07-02T09:39:24;5.70;;;2.78;;
75589;SDS011;64169;47.240;11.312;2023-07-02T09:44:17;6.67;;;2.63;;
75589;SDS011;64169;47.240;11.312;2023-07-02T09:46:45;7.40;;;2.92;;
75589;SDS011;64169;47.240;11.312;2023-07-02T09:49:35;6.28;;;2.53;;
75589;SDS011;64169;47.240;11.312;2023-07-02T09:52:02;7.15;;;2.75;;
75589;SDS011;64169;47.240;11.312;2023-07-02T09:54:29;6.60;;;3.13;;
75589;SDS011;64169;47.240;11.312;2023-07-02T09:56:56;6.90;;;2.45;;
75589;SDS011;64169;47.240;11.312;2023-07-02T09:59:22;5.97;;;2.67;;
75589;SDS011;64169;47.240;11.312;2023-07-02T10:01:47;6.18;;;2.40;;
75589;SDS011;64169;47.240;11.312;2023-07-02T10:04:13;5.25;;;2.35;;
75589;SDS011;64169;47.240;11.312;2023-07-02T10:06:46;5.63;;;2.40;;
75589;SDS011;64169;47.240;11.312;2023-07-02T10:09:12;5.68;;;2.30;;
75589;SDS011;64169;47.240;11.312;2023-07-02T10:11:38;5.28;;;2.42;;
75589;SDS011;64169;47.240;11.312;2023-07-02T10:14:03;5.32;;;2.20;;
75589;SDS011;64169;47.240;11.312;2023-07-02T10:16:28;5.70;;;2.10;;
75589;SDS011;64169;47.240;11.312;2023-07-02T10:19:07;4.63;;;2.00;;
75589;SDS011;64169;47.240;11.312;2023-07-02T10:21:36;6.28;;;2.55;;
75589;SDS011;64169;47.240;11.312;2023-07-02T10:24:08;5.60;;;2.78;;
75589;SDS011;64169;47.240;11.312;2023-07-02T10:26:37;4.60;;;1.98;;
75589;SDS011;64169;47.240;11.312;2023-07-02T10:29:03;5.45;;;2.30;;
75589;SDS011;64169;47.240;11.312;2023-07-02T10:31:28;4.75;;;2.10;;
75589;SDS011;64169;47.240;11.312;2023-07-02T10:33:54;5.13;;;2.30;;
75589;SDS011;64169;47.240;11.312;2023-07-02T10:36:20;5.25;;;2.63;;
75589;SDS011;64169;47.240;11.312;2023-07-02T10:38:46;5.20;;;2.10;;
75589;SDS011;64169;47.240;11.312;2023-07-02T10:41:22;6.65;;;2.55;;
75589;SDS011;64169;47.240;11.312;2023-07-02T10:43:48;4.97;;;2.38;;
75589;SDS011;64169;47.240;11.312;2023-07-02T10:46:20;5.95;;;2.47;;
75589;SDS011;64169;47.240;11.312;2023-07-02T10:48:53;5.60;;;2.25;;
75589;SDS011;64169;47.240;11.312;2023-07-02T10:51:19;5.97;;;2.10;;
75589;SDS011;64169;47.240;11.312;2023-07-02T10:53:46;5.32;;;2.22;;
75589;SDS011;64169;47.240;11.312;2023-07-02T10:56:17;5.45;;;2.20;;
75589;SDS011;64169;47.240;11.312;2023-07-02T10:58:43;5.03;;;2.03;;
75589;SDS011;64169;47.240;11.312;2023-07-02T11:01:09;4.63;;;1.70;;
75589;SDS011;64169;47.240;11.312;2023-07-02T11:03:34;4.68;;;2.00;;
75589;SDS011;64169;47.240;11.312;2023-07-02T11:06:00;4.72;;;2.13;;
75589;SDS011;64169;47.240;11.312;2023-07-02T11:08:34;5.20;;;2.10;;
75589;SDS011;64169;47.240;11.312;2023-07-02T11:11:09;5.07;;;2.17;;
75589;SDS011;64169;47.240;11.312;2023-07-02T11:13:43;5.18;;;2.15;;
75589;SDS011;64169;47.240;11.312;2023-07-02T11:16:25;4.80;;;2.10;;
75589;SDS011;64169;47.240;11.312;2023-07-02T11:18:53;5.97;;;2.10;;
75589;SDS011;64169;47.240;11.312;2023-07-02T11:21:20;4.40;;;1.80;;
75589;SDS011;64169;47.240;11.312;2023-07-02T11:23:45;5.07;;;2.03;;
75589;SDS011;64169;47.240;11.312;2023-07-02T11:26:11;5.30;;;2.08;;
75589;SDS011;64169;47.240;11.312;2023-07-02T11:28:46;5.25;;;1.98;;
75589;SDS011;64169;47.240;11.312;2023-07-02T11:31:13;5.32;;;2.10;;
75589;SDS011;64169;47.240;11.312;2023-07-02T11:33:39;4.93;;;1.60;;
75589;SDS011;64169;47.240;11.312;2023-07-02T11:36:05;4.60;;;1.90;;
75589;SDS011;64169;47.240;11.312;2023-07-02T11:38:32;5.40;;;2.10;;
75589;SDS011;64169;47.240;11.312;2023-07-02T11:40:58;5.35;;;2.05;;
75589;SDS011;64169;47.240;11.312;2023-07-02T11:43:25;5.90;;;1.95;;
75589;SDS011;64169;47.240;11.312;2023-07-02T11:45:51;4.65;;;1.90;;
75589;SDS011;64169;47.240;11.312;2023-07-02T11:48:16;4.80;;;2.03;;
75589;SDS011;64169;47.240;11.312;2023-07-02T11:50:42;4.93;;;2.22;;
75589;SDS011;64169;47.240;11.312;2023-07-02T11:53:07;4.20;;;1.73;;
75589;SDS011;64169;47.240;11.312;2023-07-02T11:55:32;4.78;;;1.90;;
75589;SDS011;64169;47.240;11.312;2023-07-02T11:57:58;4.60;;;1.85;;
75589;SDS011;64169;47.240;11.312;2023-07-02T12:00:23;4.30;;;1.60;;
75589;SDS011;64169;47.240;11.312;2023-07-02T12:02:49;4.57;;;1.70;;
75589;SDS011;64169;47.240;11.312;2023-07-02T12:05:14;4.80;;;2.03;;
75589;SDS011;64169;47.240;11.312;2023-07-02T12:07:40;4.97;;;1.90;;
75589;SDS011;64169;47.240;11.312;2023-07-02T12:10:06;5.38;;;1.55;;
75589;SDS011;64169;47.240;11.312;2023-07-02T12:12:32;5.15;;;2.03;;
75589;SDS011;64169;47.240;11.312;2023-07-02T12:14:58;5.28;;;2.10;;
75589;SDS011;64169;47.240;11.312;2023-07-02T12:17:23;5.20;;;1.90;;
75589;SDS011;64169;47.240;11.312;2023-07-02T12:19:48;5.30;;;1.80;;
75589;SDS011;64169;47.240;11.312;2023-07-02T12:22:14;5.00;;;1.70;;
75589;SDS011;64169;47.240;11.312;2023-07-02T12:24:42;4.82;;;1.83;;
75589;SDS011;64169;47.240;11.312;2023-07-02T12:27:08;4.50;;;1.70;;
75589;SDS011;64169;47.240;11.312;2023-07-02T12:29:35;4.60;;;1.50;;
75589;SDS011;64169;47.240;11.312;2023-07-02T12:32:01;4.47;;;1.70;;
75589;SDS011;64169;47.240;11.312;2023-07-02T12:34:26;3.90;;;1.50;;
75589;SDS011;64169;47.240;11.312;2023-07-02T12:36:54;4.93;;;1.83;;
75589;SDS011;64169;47.240;11.312;2023-07-02T12:39:20;4.90;;;1.85;;
75589;SDS011;64169;47.240;11.312;2023-07-02T12:41:45;4.90;;;1.65;;
75589;SDS011;64169;47.240;11.312;2023-07-02T12:44:10;3.88;;;1.58;;
75589;SDS011;64169;47.240;11.312;2023-07-02T12:46:36;5.40;;;1.90;;
75589;SDS011;64169;47.240;11.312;2023-07-02T12:49:01;5.88;;;1.85;;
75589;SDS011;64169;47.240;11.312;2023-07-02T12:51:27;6.05;;;2.05;;
75589;SDS011;64169;47.240;11.312;2023-07-02T12:53:52;4.78;;;1.88;;
75589;SDS011;64169;47.240;11.312;2023-07-02T12:56:17;5.30;;;2.15;;
75589;SDS011;64169;47.240;11.312;2023-07-02T12:58:43;4.75;;;1.83;;
75589;SDS011;64169;47.240;11.312;2023-07-02T13:01:08;5.32;;;1.70;;
75589;SDS011;64169;47.240;11.312;2023-07-02T13:03:34;4.57;;;1.70;;
75589;SDS011;64169;47.240;11.312;2023-07-02T13:05:59;5.65;;;2.20;;
75589;SDS011;64169;47.240;11.312;2023-07-02T13:08:25;5.10;;;1.70;;
75589;SDS011;64169;47.240;11.312;2023-07-02T13:10:50;5.97;;;1.85;;
75589;SDS011;64169;47.240;11.312;2023-07-02T13:13:15;5.00;;;1.50;;
75589;SDS011;64169;47.240;11.312;2023-07-02T13:15:41;4.82;;;1.73;;
75589;SDS011;64169;47.240;11.312;2023-07-02T13:18:06;4.40;;;1.60;;
75589;SDS011;64169;47.240;11.312;2023-07-02T13:20:31;7.50;;;2.05;;
75589;SDS011;64169;47.240;11.312;2023-07-02T13:22:57;4.07;;;1.70;;
75589;SDS011;64169;47.240;11.312;2023-07-02T13:25:23;4.78;;;1.80;;
75589;SDS011;64169;47.240;11.312;2023-07-02T13:27:49;4.90;;;1.70;;
75589;SDS011;64169;47.240;11.312;2023-07-02T13:30:14;4.43;;;1.70;;
75589;SDS011;64169;47.240;11.312;2023-07-02T13:32:39;4.70;;;1.58;;
75589;SDS011;64169;47.240;11.312;2023-07-02T13:35:05;4.70;;;1.63;;
75589;SDS011;64169;47.240;11.312;2023-07-02T13:37:31;4.03;;;1.50;;
75589;SDS011;64169;47.240;11.312;2023-07-02T13:39:56;5.97;;;1.60;;
75589;SDS011;64169;47.240;11.312;2023-07-02T13:42:21;5.05;;;1.73;;
75589;SDS011;64169;47.240;11.312;2023-07-02T13:44:47;4.63;;;1.70;;
75589;SDS011;64169;47.240;11.312;2023-07-02T13:47:12;4.55;;;1.70;;
75589;SDS011;64169;47.240;11.312;2023-07-02T13:49:38;4.97;;;2.03;;
75589;SDS011;64169;47.240;11.312;2023-07-02T13:52:03;6.10;;;2.05;;
75589;SDS011;64169;47.240;11.312;2023-07-02T13:54:30;5.18;;;1.65;;
75589;SDS011;64169;47.240;11.312;2023-07-02T13:56:55;4.97;;;1.80;;
75589;SDS011;64169;47.240;11.312;2023-07-02T13:59:21;4.35;;;1.63;;
75589;SDS011;64169;47.240;11.312;2023-07-02T14:01:47;5.53;;;1.77;;
75589;SDS011;64169;47.240;11.312;2023-07-02T14:04:13;5.35;;;1.60;;
75589;SDS011;64169;47.240;11.312;2023-07-02T14:06:38;5.13;;;1.70;;
75589;SDS011;64169;47.240;11.312;2023-07-02T14:09:04;4.40;;;1.80;;
75589;SDS011;64169;47.240;11.312;2023-07-02T14:11:31;5.47;;;1.50;;
75589;SDS011;64169;47.240;11.312;2023-07-02T14:13:58;4.60;;;1.52;;
75589;SDS011;64169;47.240;11.312;2023-07-02T14:16:24;4.45;;;1.55;;
75589;SDS011;64169;47.240;11.312;2023-07-02T14:18:50;4.38;;;1.55;;
75589;SDS011;64169;47.240;11.312;2023-07-02T14:21:16;4.72;;;1.52;;
75589;SDS011;64169;47.240;11.312;2023-07-02T14:23:42;5.03;;;1.70;;
75589;SDS011;64169;47.240;11.312;2023-07-02T14:26:08;4.50;;;1.70;;
75589;SDS011;64169;47.240;11.312;2023-07-02T14:28:34;4.22;;;1.50;;
75589;SDS011;64169;47.240;11.312;2023-07-02T14:30:59;5.45;;;1.70;;